createdAt,value
2018-12-18T00:01:36.695Z,86.30
2018-12-18T00:04:06.300Z,86.30
2018-12-18T00:06:35.874Z,86.50
2018-12-18T00:09:06.799Z,86.70
2018-12-18T00:11:36.468Z,86.90
2018-12-18T00:14:06.091Z,86.80
2018-12-18T00:16:35.716Z,86.80
2018-12-18T00:19:05.380Z,86.80
2018-12-18T00:21:35.003Z,86.90
2018-12-18T00:24:04.623Z,86.90
2018-12-18T00:26:34.308Z,86.90
2018-12-18T00:29:03.903Z,86.80
2018-12-18T00:31:35.375Z,86.50
2018-12-18T00:34:04.989Z,86.40
2018-12-18T00:36:34.573Z,86.30
2018-12-18T00:39:04.599Z,86.10
2018-12-18T00:41:34.222Z,86.10
2018-12-18T00:44:04.130Z,86.20
2018-12-18T00:46:33.766Z,86.30
2018-12-18T00:49:03.364Z,86.30
2018-12-18T00:51:33.083Z,86.10
2018-12-18T00:54:02.770Z,86.30
2018-12-18T00:56:32.382Z,86.40
2018-12-18T00:59:01.976Z,86.40
2018-12-18T01:01:31.605Z,86.00
2018-12-18T01:04:01.188Z,86.00
2018-12-18T01:06:31.211Z,86.30
2018-12-18T01:09:00.877Z,85.60
2018-12-18T01:11:30.473Z,85.20
2018-12-18T01:14:00.086Z,85.20
2018-12-18T01:16:29.766Z,85.20
2018-12-18T01:18:59.669Z,85.00
2018-12-18T01:21:29.331Z,85.10
2018-12-18T01:23:58.962Z,85.30
2018-12-18T01:26:28.577Z,85.40
2018-12-18T01:28:59.559Z,85.10
2018-12-18T01:31:29.202Z,84.70
2018-12-18T01:33:59.451Z,84.60
2018-12-18T01:36:28.365Z,84.20
2018-12-18T01:38:58.234Z,83.60
2018-12-18T01:41:27.823Z,83.50
2018-12-18T01:43:57.464Z,83.60
2018-12-18T01:46:27.063Z,83.80
2018-12-18T01:48:56.633Z,83.90
2018-12-18T01:51:26.255Z,84.00
2018-12-18T01:53:55.837Z,83.90
2018-12-18T01:56:25.387Z,84.00
2018-12-18T01:58:54.987Z,83.90
2018-12-18T02:01:25.137Z,83.80
2018-12-18T02:03:54.757Z,83.60
2018-12-18T02:06:24.322Z,83.50
2018-12-18T02:08:53.930Z,83.70
2018-12-18T02:11:23.498Z,83.70
2018-12-18T02:13:53.111Z,83.70
2018-12-18T02:16:22.690Z,84.10
2018-12-18T02:18:52.297Z,84.00
2018-12-18T02:21:21.881Z,84.70
2018-12-18T02:23:51.449Z,84.10
2018-12-18T02:26:21.069Z,84.20
2018-12-18T02:28:50.686Z,84.30
2018-12-18T02:31:20.267Z,84.40
2018-12-18T02:33:49.868Z,84.50
2018-12-18T02:36:19.450Z,84.80
2018-12-18T02:38:49.045Z,84.90
2018-12-18T02:41:18.619Z,84.70
2018-12-18T02:43:48.223Z,84.00
2018-12-18T02:46:17.802Z,84.70
2018-12-18T02:48:47.429Z,84.80
2018-12-18T02:51:17.017Z,84.80
2018-12-18T02:53:46.580Z,84.90
2018-12-18T02:56:16.193Z,85.00
2018-12-18T02:58:45.777Z,84.90
2018-12-18T03:01:15.363Z,84.90
2018-12-18T03:03:44.962Z,84.80
2018-12-18T03:06:14.579Z,84.70
2018-12-18T03:08:44.211Z,84.70
2018-12-18T03:11:18.041Z,84.60
2018-12-18T03:13:47.841Z,84.70
2018-12-18T03:16:17.425Z,84.50
2018-12-18T03:18:47.037Z,84.20
2018-12-18T03:21:17.122Z,84.20
2018-12-18T03:23:46.707Z,84.10
2018-12-18T03:26:16.326Z,84.00
2018-12-18T03:28:45.915Z,84.20
2018-12-18T03:31:15.546Z,84.10
2018-12-18T03:33:45.112Z,84.20
2018-12-18T03:36:14.705Z,84.20
2018-12-18T03:38:44.296Z,84.30
2018-12-18T03:41:13.886Z,84.30
2018-12-18T03:43:43.440Z,84.10
2018-12-18T03:46:13.116Z,84.10
2018-12-18T03:48:42.753Z,84.20
2018-12-18T03:51:12.357Z,84.30
2018-12-18T03:53:41.935Z,84.10
2018-12-18T03:56:11.506Z,84.60
2018-12-18T03:58:41.071Z,84.70
2018-12-18T04:01:10.675Z,85.00
2018-12-18T04:03:40.282Z,85.00
2018-12-18T04:06:09.890Z,85.10
2018-12-18T04:08:39.486Z,85.00
2018-12-18T04:11:09.078Z,85.00
2018-12-18T04:13:38.662Z,85.00
2018-12-18T04:16:08.278Z,85.10
2018-12-18T04:18:37.853Z,85.20
2018-12-18T04:21:08.700Z,85.20
2018-12-18T04:23:38.296Z,85.20
2018-12-18T04:26:07.902Z,85.10
2018-12-18T04:28:37.478Z,85.10
2018-12-18T04:31:08.338Z,85.00
2018-12-18T04:33:37.914Z,84.90
2018-12-18T04:36:07.543Z,84.90
2018-12-18T04:38:37.147Z,85.10
2018-12-18T04:41:07.995Z,85.30
2018-12-18T04:43:37.575Z,85.50
2018-12-18T04:46:07.187Z,85.70
2018-12-18T04:48:36.840Z,85.80
2018-12-18T04:51:06.404Z,86.00
2018-12-18T04:53:37.954Z,86.00
2018-12-18T04:56:07.531Z,86.10
2018-12-18T04:58:37.133Z,86.10
2018-12-18T05:01:06.794Z,86.10
2018-12-18T05:03:36.357Z,86.00
2018-12-18T05:06:05.967Z,85.90
2018-12-18T05:08:35.595Z,85.70
2018-12-18T05:11:05.276Z,85.70
2018-12-18T05:13:34.891Z,85.60
2018-12-18T05:16:04.462Z,85.50
2018-12-18T05:18:34.131Z,85.60
2018-12-18T05:21:03.769Z,85.80
2018-12-18T05:23:33.447Z,85.80
2018-12-18T05:26:03.055Z,85.90
2018-12-18T05:28:32.662Z,86.60
2018-12-18T05:31:02.279Z,86.00
2018-12-18T05:33:31.877Z,86.00
2018-12-18T05:36:01.460Z,85.90
2018-12-18T05:38:31.094Z,86.00
2018-12-18T05:41:00.677Z,85.90
2018-12-18T05:43:30.286Z,85.80
2018-12-18T05:45:59.863Z,85.70
2018-12-18T05:48:30.673Z,85.60
2018-12-18T05:51:00.289Z,85.40
2018-12-18T05:53:29.887Z,85.40
2018-12-18T05:55:59.570Z,85.50
2018-12-18T05:58:29.174Z,85.70
2018-12-18T06:00:58.906Z,85.60
2018-12-18T06:03:28.497Z,85.50
2018-12-18T06:05:58.079Z,85.30
2018-12-18T06:08:27.677Z,85.20
2018-12-18T06:10:57.273Z,85.20
2018-12-18T06:13:26.851Z,85.40
2018-12-18T06:15:56.522Z,85.60
2018-12-18T06:18:26.149Z,85.80
2018-12-18T06:20:55.786Z,85.80
2018-12-18T06:23:25.405Z,85.80
2018-12-18T06:25:55.014Z,85.70
2018-12-18T06:28:24.655Z,85.80
2018-12-18T06:30:54.239Z,86.00
2018-12-18T06:33:23.842Z,86.20
2018-12-18T06:35:53.488Z,86.30
2018-12-18T06:38:23.314Z,86.40
2018-12-18T06:40:52.889Z,86.40
2018-12-18T06:43:22.558Z,86.30
2018-12-18T06:45:52.224Z,86.20
2018-12-18T06:48:21.803Z,86.00
2018-12-18T06:50:51.392Z,86.50
2018-12-18T06:53:22.300Z,85.70
2018-12-18T06:55:51.890Z,85.40
2018-12-18T06:58:21.475Z,85.30
2018-12-18T07:00:51.116Z,85.00
2018-12-18T07:03:20.722Z,85.50
2018-12-18T07:05:54.017Z,84.80
2018-12-18T07:08:23.575Z,84.70
2018-12-18T07:10:53.202Z,85.00
2018-12-18T07:13:22.791Z,84.20
2018-12-18T07:15:52.372Z,84.00
2018-12-18T07:18:22.018Z,83.70
2018-12-18T07:20:51.626Z,83.60
2018-12-18T07:23:21.185Z,83.50
2018-12-18T07:25:50.783Z,83.30
2018-12-18T07:28:21.581Z,83.00
2018-12-18T07:30:51.147Z,83.10
2018-12-18T07:33:20.772Z,83.00
2018-12-18T07:35:50.366Z,83.00
2018-12-18T07:38:19.909Z,83.10
2018-12-18T07:40:50.711Z,83.20
2018-12-18T07:43:20.349Z,83.30
2018-12-18T07:45:49.926Z,83.20
2018-12-18T07:48:20.816Z,83.50
2018-12-18T07:50:50.420Z,83.90
2018-12-18T07:53:20.000Z,83.80
2018-12-18T07:55:50.966Z,83.60
2018-12-18T07:58:20.531Z,83.40
2018-12-18T08:00:50.109Z,83.20
2018-12-18T08:03:19.738Z,83.00
2018-12-18T08:05:49.313Z,83.00
2018-12-18T08:08:19.104Z,83.10
2018-12-18T08:10:48.666Z,83.20
2018-12-18T08:13:19.523Z,82.80
2018-12-18T08:15:49.085Z,83.50
2018-12-18T08:19:48.218Z,83.50
2018-12-18T08:22:17.798Z,83.50
2018-12-18T08:24:47.570Z,83.90
2018-12-18T08:27:17.190Z,84.40
2018-12-18T08:29:46.779Z,84.90
2018-12-18T08:32:16.397Z,85.10
2018-12-18T08:34:45.987Z,85.20
2018-12-18T08:37:15.597Z,85.30
2018-12-18T08:39:45.259Z,85.20
2018-12-18T08:42:14.849Z,85.10
2018-12-18T08:44:44.436Z,85.30
2018-12-18T08:47:14.079Z,85.30
2018-12-18T08:49:43.675Z,85.40
2018-12-18T08:52:13.300Z,85.20
2018-12-18T08:54:44.189Z,85.40
2018-12-18T08:57:13.829Z,85.70
2018-12-18T08:59:43.463Z,85.80
2018-12-18T09:02:13.043Z,85.70
2018-12-18T09:04:42.693Z,85.70
2018-12-18T09:07:12.302Z,85.70
2018-12-18T09:09:41.973Z,85.90
2018-12-18T09:12:14.331Z,86.00
2018-12-18T09:14:52.179Z,86.10
2018-12-18T09:17:27.245Z,86.00
2018-12-18T09:19:56.847Z,85.80
2018-12-18T09:22:26.545Z,86.20
2018-12-18T09:24:56.164Z,86.60
2018-12-18T09:27:25.765Z,87.00
2018-12-18T09:29:55.417Z,87.10
2018-12-18T09:32:25.107Z,86.90
2018-12-18T09:34:54.729Z,86.70
2018-12-18T09:37:24.304Z,86.40
2018-12-18T09:39:55.144Z,86.40
2018-12-18T09:42:30.077Z,86.30
2018-12-18T09:44:59.693Z,86.20
2018-12-18T09:47:29.261Z,86.00
2018-12-18T09:49:58.873Z,85.70
2018-12-18T09:52:28.490Z,85.30
2018-12-18T09:54:58.094Z,84.90
2018-12-18T09:57:33.118Z,84.80
2018-12-18T10:00:02.747Z,84.50
2018-12-18T10:02:32.555Z,84.00
2018-12-18T10:05:02.197Z,83.70
2018-12-18T10:07:31.896Z,83.60
2018-12-18T10:10:01.623Z,83.60
2018-12-18T10:12:39.077Z,83.60
2018-12-18T10:15:08.936Z,83.40
2018-12-18T10:17:39.818Z,83.20
2018-12-18T10:20:11.923Z,83.00
2018-12-18T10:22:41.676Z,82.90
2018-12-18T10:25:11.326Z,83.10
2018-12-18T10:27:40.989Z,82.80
2018-12-18T10:30:10.982Z,82.00
2018-12-18T10:32:40.294Z,82.30
2018-12-18T10:35:09.954Z,82.90
2018-12-18T10:37:39.557Z,83.30
2018-12-18T10:40:10.385Z,83.90
2018-12-18T10:42:39.986Z,84.10
2018-12-18T10:45:14.897Z,84.20
2018-12-18T10:47:44.471Z,84.20
2018-12-18T10:50:15.370Z,84.10
2018-12-18T10:52:44.956Z,84.00
2018-12-18T10:55:14.540Z,84.20
2018-12-18T10:57:44.122Z,84.40
2018-12-18T11:00:18.905Z,84.40
2018-12-18T11:02:48.570Z,84.00
2018-12-18T11:05:18.130Z,84.00
2018-12-18T11:07:47.708Z,83.20
2018-12-18T11:10:17.343Z,82.70
2018-12-18T11:12:53.884Z,82.00
2018-12-18T11:15:23.495Z,81.50
2018-12-18T11:17:53.069Z,81.50
2018-12-18T11:20:22.702Z,81.80
2018-12-18T11:22:52.345Z,82.00
2018-12-18T11:25:21.994Z,82.10
2018-12-18T11:27:51.590Z,81.90
2018-12-18T11:30:21.209Z,81.30
2018-12-18T11:32:50.949Z,81.30
2018-12-18T11:35:20.534Z,81.60
2018-12-18T11:37:51.494Z,81.60
2018-12-18T11:40:21.123Z,81.60
2018-12-18T11:42:50.795Z,81.90
2018-12-18T11:45:20.454Z,82.30
2018-12-18T11:47:50.035Z,82.20
2018-12-18T11:50:19.622Z,82.10
2018-12-18T11:52:50.503Z,81.90
2018-12-18T11:55:20.105Z,81.70
2018-12-18T11:57:50.817Z,81.60
2018-12-18T12:00:20.519Z,81.40
2018-12-18T12:02:50.386Z,81.20
2018-12-18T12:05:19.964Z,81.00
2018-12-18T12:07:49.558Z,80.90
2018-12-18T12:10:19.186Z,81.20
2018-12-18T12:12:48.781Z,81.50
2018-12-18T12:15:18.391Z,81.50
2018-12-18T12:17:47.945Z,81.10
2018-12-18T12:20:17.588Z,81.50
2018-12-18T12:22:47.205Z,80.80
2018-12-18T12:25:16.779Z,80.90
2018-12-18T12:27:51.654Z,81.30
2018-12-18T12:30:21.239Z,81.50
2018-12-18T12:32:50.845Z,81.60
2018-12-18T12:35:20.420Z,81.90
2018-12-18T12:37:50.025Z,82.20
2018-12-18T12:40:19.706Z,82.50
2018-12-18T12:42:49.292Z,83.00
2018-12-18T12:45:18.845Z,83.40
2018-12-18T12:47:49.678Z,83.60
2018-12-18T12:50:19.352Z,83.90
2018-12-18T12:52:50.257Z,84.10
2018-12-18T12:55:19.838Z,84.30
2018-12-18T12:57:49.494Z,84.40
2018-12-18T13:00:19.087Z,84.50
2018-12-18T13:02:51.178Z,84.70
2018-12-18T13:05:20.796Z,84.70
2018-12-18T13:07:50.373Z,84.60
2018-12-18T13:10:20.007Z,84.60
2018-12-18T13:12:49.593Z,84.80
2018-12-18T13:15:19.249Z,85.50
2018-12-18T13:17:48.850Z,85.20
2018-12-18T13:20:18.433Z,84.90
2018-12-18T13:22:49.357Z,84.90
2018-12-18T13:25:18.989Z,84.90
2018-12-18T13:27:48.593Z,84.90
2018-12-18T13:30:19.342Z,84.90
2018-12-18T13:32:49.022Z,85.00
2018-12-18T13:35:18.593Z,85.00
2018-12-18T13:37:48.227Z,85.00
2018-12-18T13:40:18.138Z,85.00
2018-12-18T13:42:47.714Z,85.10
2018-12-18T13:45:17.292Z,85.00
2018-12-18T13:47:46.955Z,85.00
2018-12-18T13:50:16.552Z,85.00
2018-12-18T13:52:46.164Z,85.10
2018-12-18T13:55:19.565Z,85.20
2018-12-18T13:57:49.162Z,85.40
2018-12-18T14:00:18.739Z,85.60
2018-12-18T14:02:48.997Z,85.80
2018-12-18T14:05:18.586Z,86.10
2018-12-18T14:07:48.246Z,86.50
2018-12-18T14:10:17.981Z,86.90
2018-12-18T14:12:52.966Z,87.50
2018-12-18T14:15:22.616Z,87.90
2018-12-18T14:17:52.233Z,88.20
2018-12-18T14:20:21.846Z,88.60
2018-12-18T14:22:51.502Z,89.10
2018-12-18T14:25:21.109Z,89.50
2018-12-18T14:27:50.728Z,89.80
2018-12-18T14:30:20.930Z,90.00
2018-12-18T14:32:50.564Z,90.10
2018-12-18T14:35:20.258Z,90.40
2018-12-18T14:37:49.850Z,90.30
2018-12-18T14:40:19.898Z,90.40
2018-12-18T14:42:49.486Z,90.40
2018-12-18T14:45:19.112Z,90.40
2018-12-18T14:47:48.694Z,90.30
2018-12-18T14:50:18.293Z,90.30
2018-12-18T14:52:49.125Z,90.40
2018-12-18T14:55:18.734Z,90.40
2018-12-18T14:57:48.376Z,90.40
2018-12-18T15:00:17.974Z,90.70
2018-12-18T15:02:47.573Z,90.40
2018-12-18T15:05:17.793Z,90.40
2018-12-18T15:07:46.829Z,90.50
2018-12-18T15:10:16.493Z,90.50
2018-12-18T15:12:53.562Z,90.50
2018-12-18T15:15:23.133Z,90.40
2018-12-18T15:17:52.763Z,90.50
2018-12-18T15:20:22.357Z,90.40
2018-12-18T15:22:53.113Z,90.60
2018-12-18T15:25:22.768Z,90.70
2018-12-18T15:27:52.334Z,90.90
2018-12-18T15:30:26.122Z,91.00
2018-12-18T15:32:52.886Z,91.20
2018-12-18T15:35:22.494Z,91.00
2018-12-18T15:37:52.143Z,91.00
2018-12-18T15:40:21.785Z,91.00
2018-12-18T15:42:51.386Z,91.10
2018-12-18T15:45:20.998Z,91.10
2018-12-18T15:47:50.605Z,91.10
2018-12-18T15:50:23.926Z,91.20
2018-12-18T15:52:53.528Z,91.20
2018-12-18T15:55:24.474Z,91.30
2018-12-18T15:57:54.098Z,91.30
2018-12-18T16:00:24.949Z,91.30
2018-12-18T16:02:54.686Z,91.30
2018-12-18T16:05:26.894Z,91.40
2018-12-18T16:07:56.538Z,91.40
2018-12-18T16:10:26.155Z,91.50
2018-12-18T16:12:56.954Z,91.50
2018-12-18T16:15:28.928Z,91.50
2018-12-18T16:17:58.577Z,91.60
2018-12-18T16:20:28.189Z,91.60
2018-12-18T16:22:57.993Z,91.70
2018-12-18T16:25:27.674Z,91.70
2018-12-18T16:27:57.269Z,91.70
2018-12-18T16:30:26.977Z,91.80
2018-12-18T16:32:56.632Z,91.80
2018-12-18T16:35:26.298Z,91.90
2018-12-18T16:37:56.588Z,91.90
2018-12-18T16:40:26.191Z,92.00
2018-12-18T16:42:55.886Z,92.10
2018-12-18T16:45:25.506Z,92.10
2018-12-18T16:47:56.350Z,92.20
2018-12-18T16:50:26.691Z,92.10
2018-12-18T16:52:55.558Z,92.10
2018-12-18T16:55:25.219Z,92.10
2018-12-18T16:57:54.816Z,92.10
2018-12-18T17:00:25.784Z,92.00
2018-12-18T17:02:55.451Z,92.00
2018-12-18T17:05:25.138Z,91.90
2018-12-18T17:07:54.765Z,91.90
2018-12-18T17:10:24.404Z,92.00
2018-12-18T17:12:58.086Z,91.90
2018-12-18T17:15:27.669Z,91.90
2018-12-18T17:17:58.513Z,91.90
2018-12-18T17:20:28.122Z,91.90
2018-12-18T17:22:57.758Z,91.90
2018-12-18T17:25:27.502Z,91.90
2018-12-18T17:27:57.105Z,91.80
2018-12-18T17:30:26.717Z,91.70
2018-12-18T17:32:56.339Z,91.70
2018-12-18T17:35:26.069Z,91.80
2018-12-18T17:37:55.711Z,91.70
2018-12-18T17:40:26.708Z,91.70
2018-12-18T17:42:56.622Z,91.80
2018-12-18T17:45:26.272Z,91.80
2018-12-18T17:47:58.394Z,91.80
2018-12-18T17:50:27.987Z,91.80
2018-12-18T17:52:57.646Z,91.80
2018-12-18T17:55:29.892Z,91.80
2018-12-18T17:57:59.839Z,92.30
2018-12-18T18:00:29.515Z,92.10
2018-12-18T18:02:59.126Z,92.10
2018-12-18T18:05:30.242Z,91.80
2018-12-18T18:07:59.851Z,91.60
2018-12-18T18:10:29.490Z,91.70
2018-12-18T18:13:00.536Z,91.60
2018-12-18T18:15:30.168Z,91.60
2018-12-18T18:17:59.811Z,91.60
2018-12-18T18:20:29.624Z,91.50
2018-12-18T18:22:59.233Z,91.50
2018-12-18T18:25:29.005Z,91.50
2018-12-18T18:27:58.613Z,91.40
2018-12-18T18:30:28.636Z,91.30
2018-12-18T18:32:58.346Z,91.30
2018-12-18T18:35:28.075Z,91.30
2018-12-18T18:37:57.716Z,91.20
2018-12-18T18:40:28.760Z,91.20
2018-12-18T18:42:58.538Z,91.10
2018-12-18T18:45:28.246Z,91.00
2018-12-18T18:47:59.699Z,90.90
2018-12-18T18:50:29.414Z,90.90
2018-12-18T18:53:00.381Z,90.90
2018-12-18T18:55:30.048Z,90.90
2018-12-18T18:58:00.938Z,90.90
2018-12-18T19:00:30.571Z,90.90
2018-12-18T19:03:00.340Z,90.80
2018-12-18T19:05:31.308Z,90.70
2018-12-18T19:08:00.994Z,90.70
2018-12-18T19:10:33.132Z,90.80
2018-12-18T19:13:02.793Z,91.30
2018-12-18T19:15:32.705Z,91.20
2018-12-18T19:18:05.922Z,91.20
2018-12-18T19:20:35.632Z,91.20
2018-12-18T19:23:13.515Z,91.20
2018-12-18T19:25:43.119Z,91.30
2018-12-18T19:28:14.090Z,91.50
2018-12-18T19:30:43.764Z,91.60
2018-12-18T19:33:13.502Z,91.70
2018-12-18T19:35:45.967Z,91.80
2018-12-18T19:38:15.617Z,91.90
2018-12-18T19:40:45.249Z,92.10
2018-12-18T19:43:15.247Z,92.20
2018-12-18T19:45:45.154Z,92.20
2018-12-18T19:48:15.023Z,92.30
2018-12-18T19:50:48.371Z,92.40
2018-12-18T19:53:18.657Z,92.20
2018-12-18T19:55:48.918Z,92.10
2018-12-18T19:58:20.414Z,92.00
2018-12-18T20:00:52.195Z,91.90
2018-12-18T20:03:23.121Z,91.90
2018-12-18T20:05:52.979Z,91.90
2018-12-18T20:08:23.915Z,91.80
2018-12-18T20:10:53.555Z,91.80
2018-12-18T20:13:23.212Z,91.80
2018-12-18T20:15:55.008Z,91.80
2018-12-18T20:18:24.671Z,91.80
2018-12-18T20:20:55.557Z,91.80
2018-12-18T20:23:27.713Z,91.70
2018-12-18T20:25:59.516Z,91.80
2018-12-18T20:28:29.839Z,91.80
2018-12-18T20:30:59.769Z,91.80
2018-12-18T20:33:29.519Z,91.80
2018-12-18T20:36:00.822Z,91.80
2018-12-18T20:38:31.169Z,91.80
2018-12-18T20:41:00.819Z,91.90
2018-12-18T20:43:30.526Z,91.90
2018-12-18T20:46:00.271Z,91.90
2018-12-18T20:48:30.269Z,91.90
2018-12-18T20:51:01.089Z,92.00
2018-12-18T20:53:31.371Z,92.00
2018-12-18T20:56:03.373Z,92.00
2018-12-18T20:58:34.323Z,91.90
2018-12-18T21:01:04.258Z,91.90
2018-12-18T21:03:33.975Z,91.90
2018-12-18T21:06:03.892Z,91.90
2018-12-18T21:08:33.530Z,91.90
2018-12-18T21:11:04.470Z,91.90
2018-12-18T21:13:36.273Z,91.90
2018-12-18T21:16:07.423Z,91.90
2018-12-18T21:18:37.451Z,91.80
2018-12-18T21:21:07.270Z,91.80
2018-12-18T21:23:37.249Z,91.70
2018-12-18T21:26:07.301Z,91.70
2018-12-18T21:28:38.474Z,91.70
2018-12-18T21:31:08.146Z,91.80
2018-12-18T21:33:38.971Z,91.80
2018-12-18T21:36:08.669Z,91.80
2018-12-18T21:38:38.484Z,91.90
2018-12-18T21:41:10.723Z,91.90
2018-12-18T21:43:46.005Z,92.30
2018-12-18T21:46:16.922Z,92.10
2018-12-18T21:48:46.664Z,92.30
2018-12-18T21:51:18.655Z,92.40
2018-12-18T21:53:48.532Z,92.50
2018-12-18T21:56:20.055Z,92.60
2018-12-18T21:58:51.062Z,92.70
2018-12-18T22:01:22.334Z,92.80
2018-12-18T22:03:54.845Z,92.90
2018-12-18T22:06:24.521Z,92.90
2018-12-18T22:08:54.205Z,93.00
2018-12-18T22:11:24.965Z,93.00
2018-12-18T22:13:54.832Z,93.00
2018-12-18T22:16:25.846Z,93.00
2018-12-18T22:18:58.999Z,93.00
2018-12-18T22:21:29.831Z,93.00
2018-12-18T22:24:00.842Z,93.10
2018-12-18T22:26:30.815Z,93.10
2018-12-18T22:29:01.088Z,93.20
2018-12-18T22:31:30.755Z,93.20
2018-12-18T22:34:02.242Z,93.30
2018-12-18T22:36:34.073Z,93.30
2018-12-18T22:39:05.322Z,93.30
2018-12-18T22:41:35.266Z,93.30
2018-12-18T22:44:05.208Z,93.40
2018-12-18T22:46:36.122Z,93.60
2018-12-18T22:49:06.031Z,93.40
2018-12-18T22:51:37.117Z,93.30
2018-12-18T22:54:06.890Z,93.30
2018-12-18T22:56:36.590Z,93.20
2018-12-18T22:59:08.530Z,93.20
2018-12-18T23:01:45.122Z,93.20
2018-12-18T23:04:15.460Z,93.10
2018-12-18T23:06:45.809Z,93.10
2018-12-18T23:09:16.416Z,93.10
2018-12-18T23:11:46.933Z,93.00
2018-12-18T23:14:15.798Z,92.90
2018-12-18T23:16:46.125Z,92.90
2018-12-18T23:19:15.878Z,92.90
2018-12-18T23:21:46.519Z,92.90
2018-12-18T23:24:19.199Z,92.90
2018-12-18T23:26:49.932Z,92.80
2018-12-18T23:29:20.841Z,92.70
2018-12-18T23:31:50.448Z,92.70
2018-12-18T23:34:21.373Z,93.00
2018-12-18T23:36:49.773Z,92.70
2018-12-18T23:39:19.444Z,92.80
2018-12-18T23:41:49.042Z,92.70
2018-12-18T23:44:18.746Z,92.70
2018-12-18T23:46:48.341Z,92.70
2018-12-18T23:49:19.174Z,92.70
2018-12-18T23:51:48.778Z,92.80
2018-12-18T23:54:18.448Z,92.80
2018-12-18T23:56:48.034Z,92.80
2018-12-18T23:59:17.696Z,92.80
